Aérodrome :







RETROUVEZ-NOUS SUR...

 
LOGIN :

S'inscrire | Disclaimer

   EN    FR    IT 

 









Légende :    VFR   VFR Marginal   IFR   IFR Intensif   IFR Très Intensif
Visi : 
Plafond : 
>= 8 km
>= 3000ft
5 à 8 km
1000 à 3000 ft
1500m à 5 km
500 à 1000 ft
800 à 1500m
200 à 500 ft
< 800m
< 200 ft
Symboles :   Orages  Brouillard  Fortes neiges  Fortes précipitations  Vent > 20 kt






- Altitude de l'aérodrome : 118 ft
- Code IATA : YUL


CYUL - Montréal - Pierre-Elliott-Trudeau Int.

DERNIER METAR :
  • 020700Z 02007KT 15SM FEW035 BKN080 03/M01 A2989 RMK SC2AC5 SLP123

METARs EXPIRÉS :
  • 020600Z 36004KT 15SM FEW040 OVC080 03/M01 A2989 RMK SC1AC8 SC TR SLP125
  • 020500Z 35005KT 15SM FEW035 OVC078 03/M01 A2989 RMK SC1AC7 SLP125

TAF TAF CYUL
Valide du 02 à 06h jusqu'au 03 à 06h UTC


020538Z 0206/0306 35005KT P6SM FEW040 OVC080
FM020900 32007KT P6SM SCT020 BKN060
FM021600 33010KT P6SM BKN025 BKN050 OVC180
FM021900 35010KT P6SM -SHRA OVC020
FM022300 34010KT 6SM -SHRA BR OVC015 RMK NXT FCST BY 020900Z
ATIS : ENG : +1 514-633-3037 FRA : +1 514-633-3034



MET'MAP, la Météo Aéronautique d'un coup d'oeil ! - Copyright ORBIFLY Décembre 2007 - Disclaimer

ORBIFLY MET'MAP TEAM :

Programmation & Développement : Alexandra Zaïnal
Sur une idée originale de : Baudouin d'Aumeries
Assistance à la programmation : Marc-Olivier Méhu
Soutien technique & logistique : Manuel Goepfert

Contact : metmap@orbifly.com




SOURCES & CREDITS :

   NOAA